41MA weather

Haney Heliport
Mashpee, Massachusetts, United States

Public forecast

Using degrees Fahrenheit for public forecast. Weather courtesy of forecast.io.

METAR (pilot weather report)

Closest report is Cape Cod Coast Guard Air Station, 4.6 nm (8.5 km) NNW. Retrieved 2019/07/22 17:35 UTC (8 minutes ago):

KFMH 221735Z AUTO 02007KT 10SM SCT075 SCT100 24/20 A2985 RMK AO2

TAF (pilot weather forecast)

Closest forecast is Cape Cod Coast Guard Air Station, 4.6 nm (8.5 km) NNW. Retrieved 2019/07/22 12:24 UTC (5 hours ago):

TAF KFMH 221120Z 2212/2312 01005KT P6SM BKN250 FM221900 06006KT P6SM VCSH BKN060 FM222100 12007KT 6SM -SHRA BKN035 FM222300 12007KT 5SM -SHRA OVC020 FM230100 15007KT 3SM -SHRA BR OVC008 FM230900 30007KT 3SM -SHRA BR OVC008